Time;durP1;ratioP1;P1;durP2;ratioP2;P2;SDS_P1;SDS_P2;PMS_P1;PMS_P2;Temp;Humidity;BMP_temperature;BMP_pressure;BME280_temperature;BME280_humidity;BME280_pressure;Samples;Min_cycle;Max_cycle;Signal;HPM_P1;HPM_P2
2023/03/20 00:02:01;;;;;;;;;;;;;;;6.26;65.79;99667.94;5116440;28;19971;-63
2023/03/20 00:04:30;;;;;;;;;;;;;;;6.20;65.47;99672.88;5116411;28;19924;-63
2023/03/20 00:06:58;;;;;;;;;;;;;;;6.17;65.78;99680.44;5116560;28;19920;-63
2023/03/20 00:09:27;;;;;;;;;;;;;;;6.16;65.96;99682.94;5116589;28;20357;-63
2023/03/20 00:11:56;;;;;;;;;;;;;;;6.13;66.03;99673.63;5115175;28;19920;-63
2023/03/20 00:14:26;;;;;;;;;;;;;;;6.16;66.02;99668.59;5116139;28;19927;-63
2023/03/20 00:16:56;;;;;;;;;;;;;;;6.19;66.00;99671.16;5116389;28;19989;-63
2023/03/20 00:19:25;;;;;;;;;;;;;;;6.23;65.94;99665.34;5115689;28;19920;-64
2023/03/20 00:21:54;;;;;;;;;;;;;;;6.26;65.43;99669.63;5116536;28;20010;-63
2023/03/20 00:24:23;;;;;;;;;;;;;;;6.21;65.81;99674.59;5115991;28;19969;-63
2023/03/20 00:26:53;;;;;;;;;;;;;;;6.21;65.77;99669.53;5115806;28;20368;-63
2023/03/20 00:29:22;;;;;;;;;;;;;;;6.19;65.87;99661.03;5115971;28;20003;-63
2023/03/20 00:31:52;;;;;;;;;;;;;;;6.18;65.75;99661.88;5114959;28;20022;-63
2023/03/20 00:34:23;;;;;;;;;;;;;;;6.17;65.91;99665.22;5115838;28;19964;-63
2023/03/20 00:36:51;;;;;;;;;;;;;;;6.19;65.74;99655.97;5116106;28;19926;-63
2023/03/20 00:39:20;;;;;;;;;;;;;;;6.18;65.71;99658.50;5115683;28;19923;-63
2023/03/20 00:41:50;;;;;;;;;;;;;;;6.15;65.79;99659.28;5114379;28;19928;-63
2023/03/20 00:44:20;;;;;;;;;;;;;;;6.15;65.92;99661.81;5115650;28;19968;-63
2023/03/20 00:46:50;;;;;;;;;;;;;;;6.13;65.59;99653.34;5114511;28;19920;-63
2023/03/20 00:49:22;;;;;;;;;;;;;;;6.14;65.60;99655.06;5115802;28;19945;-63
2023/03/20 00:51:51;;;;;;;;;;;;;;;6.08;65.25;99655.81;5114632;28;20277;-63
2023/03/20 00:54:20;;;;;;;;;;;;;;;6.04;65.61;99648.13;5115769;28;19919;-63
2023/03/20 00:56:53;;;;;;;;;;;;;;;6.05;65.58;99647.28;5115625;28;19969;-63
2023/03/20 00:59:22;;;;;;;;;;;;;;;5.97;65.53;99651.41;5114008;28;19930;-63
2023/03/20 01:01:51;;;;;;;;;;;;;;;5.91;65.77;99646.22;5114003;28;20361;-63
2023/03/20 01:04:21;;;;;;;;;;;;;;;5.84;66.09;99644.38;5115223;28;19927;-63
2023/03/20 01:06:51;;;;;;;;;;;;;;;5.77;66.09;99647.63;5115207;28;19924;-63
2023/03/20 01:09:20;;;;;;;;;;;;;;;5.72;66.19;99647.53;5115115;28;20017;-63
2023/03/20 01:11:48;;;;;;;;;;;;;;;5.62;66.40;99639.75;5115078;28;19947;-63
2023/03/20 01:14:17;;;;;;;;;;;;;;;5.62;66.34;99647.34;5114263;28;19920;-63
2023/03/20 01:16:46;;;;;;;;;;;;;;;5.62;66.18;99642.28;5114988;28;19920;-63
2023/03/20 01:19:15;;;;;;;;;;;;;;;5.61;66.35;99645.66;5114252;28;20354;-63
2023/03/20 01:21:46;;;;;;;;;;;;;;;5.63;66.56;99646.53;5113486;28;19920;-63
2023/03/20 01:24:14;;;;;;;;;;;;;;;5.66;66.48;99646.59;5115176;28;19969;-63
2023/03/20 01:26:44;;;;;;;;;;;;;;;5.62;66.33;99645.66;5115111;28;19920;-63
2023/03/20 01:29:17;;;;;;;;;;;;;;;5.60;66.40;99643.94;5113581;28;20026;-63
2023/03/20 01:31:46;;;;;;;;;;;;;;;5.61;66.26;99641.44;5114818;28;19919;-63
2023/03/20 01:34:16;;;;;;;;;;;;;;;5.58;66.63;99645.59;5113539;28;19973;-63
2023/03/20 01:36:48;;;;;;;;;;;;;;;5.57;66.23;99648.94;5113847;28;20010;-63
2023/03/20 01:39:17;;;;;;;;;;;;;;;5.50;66.55;99644.56;5114642;28;19981;-63
2023/03/20 01:41:47;;;;;;;;;;;;;;;5.38;66.78;99653.66;5114560;28;19958;-63
2023/03/20 01:44:19;;;;;;;;;;;;;;;5.38;66.99;99653.66;5114558;28;19919;-63
2023/03/20 01:46:48;;;;;;;;;;;;;;;5.38;66.98;99651.13;5113435;28;20373;-63
2023/03/20 01:49:30;;;;;;;;;;;;;;;5.36;66.75;99652.78;5113634;28;19919;-63
2023/03/20 01:52:04;;;;;;;;;;;;;;;5.35;66.69;99655.28;5114906;28;20010;-63
2023/03/20 01:54:34;;;;;;;;;;;;;;;5.32;66.79;99656.09;5113542;28;19950;-63
2023/03/20 01:57:09;;;;;;;;;;;;;;;5.33;66.64;99659.44;5113893;28;20255;-63
2023/03/20 01:59:41;;;;;;;;;;;;;;;5.31;66.64;99659.41;5113451;28;20277;-63
2023/03/20 02:02:13;;;;;;;;;;;;;;;5.30;66.77;99655.16;5113224;28;19923;-63
2023/03/20 02:04:46;;;;;;;;;;;;;;;5.33;66.78;99660.31;5114377;28;20389;-63
2023/03/20 02:07:20;;;;;;;;;;;;;;;5.28;66.73;99661.88;5114392;28;19927;-63
2023/03/20 02:10:01;;;;;;;;;;;;;;;5.24;66.83;99660.13;5114248;28;19968;-63
2023/03/20 02:12:41;;;;;;;;;;;;;;;5.20;67.20;99658.38;5114324;28;19923;-63
2023/03/20 02:15:14;;;;;;;;;;;;;;;5.14;67.31;99663.28;5113115;28;19931;-63
2023/03/20 02:17:55;;;;;;;;;;;;;;;5.11;67.52;99658.16;5114664;28;20000;-63
2023/03/20 02:20:31;;;;;;;;;;;;;;;5.13;67.22;99661.59;5113004;28;19924;-63
2023/03/20 02:23:18;;;;;;;;;;;;;;;5.18;67.25;99654.94;5113283;28;20280;-63
2023/03/20 02:26:01;;;;;;;;;;;;;;;5.15;67.56;99662.47;5114295;28;19965;-63
2023/03/20 02:28:42;;;;;;;;;;;;;;;5.15;67.17;99667.53;5114755;28;19919;-63
2023/03/20 02:31:26;;;;;;;;;;;;;;;5.18;67.27;99659.16;5113120;28;19926;-63
2023/03/20 02:34:08;;;;;;;;;;;;;;;5.12;67.45;99657.34;5115023;28;19919;-63
2023/03/20 02:36:48;;;;;;;;;;;;;;;5.08;67.61;99663.19;5118149;28;20369;-63
2023/03/20 02:39:25;;;;;;;;;;;;;;;5.01;67.55;99656.28;5117161;28;20078;-63
2023/03/20 02:41:57;;;;;;;;;;;;;;;4.96;67.88;99657.88;5118296;28;20274;-63
2023/03/20 02:44:30;;;;;;;;;;;;;;;4.95;67.69;99655.28;5116840;28;19926;-63
2023/03/20 02:47:04;;;;;;;;;;;;;;;4.94;67.73;99654.44;5117956;28;19920;-63
2023/03/20 02:49:44;;;;;;;;;;;;;;;4.90;67.70;99655.19;5116719;28;19966;-63
2023/03/20 02:52:17;;;;;;;;;;;;;;;4.87;68.17;99652.59;5117769;28;19945;-63
2023/03/20 02:54:53;;;;;;;;;;;;;;;4.88;68.01;99656.84;5117770;28;19920;-63
2023/03/20 02:57:27;;;;;;;;;;;;;;;4.90;68.17;99651.78;5117784;27;19926;-63
2023/03/20 02:59:58;;;;;;;;;;;;;;;4.94;68.26;99649.41;5116799;28;20281;-63
2023/03/20 03:02:31;;;;;;;;;;;;;;;4.88;68.12;99650.91;5116640;28;19924;-63
2023/03/20 03:05:03;;;;;;;;;;;;;;;4.81;67.91;99647.41;5117648;28;19920;-63
2023/03/20 03:07:33;;;;;;;;;;;;;;;4.75;68.46;99652.34;5116414;28;19927;-63
2023/03/20 03:10:05;;;;;;;;;;;;;;;4.70;68.26;99652.22;5116285;28;20015;-63
2023/03/20 03:12:36;;;;;;;;;;;;;;;4.63;68.48;99647.84;5117684;28;20365;-63
2023/03/20 03:15:07;;;;;;;;;;;;;;;4.59;69.34;99645.22;5117390;28;19920;-63
2023/03/20 03:17:38;;;;;;;;;;;;;;;4.62;68.96;99645.31;5116160;28;19920;-63
2023/03/20 03:20:09;;;;;;;;;;;;;;;4.66;68.89;99647.94;5116298;28;20292;-63
2023/03/20 03:22:38;;;;;;;;;;;;;;;4.73;69.07;99643.84;5115961;28;19919;-63
2023/03/20 03:25:11;;;;;;;;;;;;;;;4.77;68.82;99639.72;5116223;28;20354;-63
2023/03/20 03:27:41;;;;;;;;;;;;;;;4.76;68.65;99646.47;5117178;28;19920;-63
2023/03/20 03:30:13;;;;;;;;;;;;;;;4.75;68.77;99644.78;5117464;28;19920;-63
2023/03/20 03:32:45;;;;;;;;;;;;;;;4.80;68.47;99650.75;5117337;28;19919;-63
2023/03/20 03:35:16;;;;;;;;;;;;;;;4.82;68.65;99644.09;5116960;28;19943;-63
2023/03/20 03:37:50;;;;;;;;;;;;;;;4.77;68.89;99645.66;5115795;28;19965;-63
2023/03/20 03:40:24;;;;;;;;;;;;;;;4.75;68.81;99647.28;5116041;28;20389;-63
2023/03/20 03:42:55;;;;;;;;;;;;;;;4.84;69.01;99659.25;5115602;28;19924;-63
2023/03/20 03:45:29;;;;;;;;;;;;;;;4.86;69.17;99653.44;5116936;28;19923;-63
2023/03/20 03:48:02;;;;;;;;;;;;;;;4.90;69.05;99652.66;5117462;28;19942;-63
2023/03/20 03:50:35;;;;;;;;;;;;;;;4.90;69.19;99652.66;5116710;28;19948;-63
2023/03/20 03:53:06;;;;;;;;;;;;;;;4.86;68.72;99655.09;5116949;28;20288;-63
2023/03/20 03:55:39;;;;;;;;;;;;;;;4.85;69.22;99653.41;5116557;28;19927;-63
2023/03/20 03:58:13;;;;;;;;;;;;;;;4.89;69.16;99658.56;5116566;28;19919;-63
2023/03/20 04:00:45;;;;;;;;;;;;;;;4.91;68.94;99664.50;5115350;28;19926;-63
2023/03/20 04:03:13;;;;;;;;;;;;;;;4.87;69.29;99667.75;5116757;28;20014;-63
2023/03/20 04:05:43;;;;;;;;;;;;;;;4.74;68.98;99664.13;5116327;27;19950;-63
2023/03/20 04:08:12;;;;;;;;;;;;;;;4.75;69.49;99662.47;5115139;28;19920;-63
2023/03/20 04:10:43;;;;;;;;;;;;;;;4.80;69.68;99675.19;5116928;28;19926;-63
2023/03/20 04:13:11;;;;;;;;;;;;;;;4.83;69.12;99681.16;5115471;28;19958;-63
2023/03/20 04:15:40;;;;;;;;;;;;;;;4.84;69.15;99676.97;5114979;28;19920;-63
2023/03/20 04:18:15;;;;;;;;;;;;;;;4.88;69.12;99674.53;5114764;28;19926;-63
2023/03/20 04:20:45;;;;;;;;;;;;;;;4.88;69.11;99669.47;5116143;28;20274;-63
2023/03/20 04:23:14;;;;;;;;;;;;;;;4.89;68.97;99668.66;5115924;28;19924;-63
2023/03/20 04:25:44;;;;;;;;;;;;;;;4.87;69.37;99670.28;5114839;28;19927;-63
2023/03/20 04:28:15;;;;;;;;;;;;;;;4.89;68.95;99676.25;5116011;28;20002;-63
2023/03/20 04:30:53;;;;;;;;;;;;;;;4.90;69.14;99667.81;5116250;28;19949;-63
2023/03/20 04:33:33;;;;;;;;;;;;;;;4.89;69.19;99665.28;5115919;28;19942;-63
2023/03/20 04:36:13;;;;;;;;;;;;;;;4.78;69.25;99667.56;5116162;28;19920;-63
2023/03/20 04:38:42;;;;;;;;;;;;;;;4.62;69.56;99668.91;5115749;28;19920;-63
2023/03/20 04:41:12;;;;;;;;;;;;;;;4.61;69.76;99663.81;5114536;28;20323;-63
2023/03/20 04:43:41;;;;;;;;;;;;;;;4.59;69.25;99665.44;5114695;28;19919;-63
2023/03/20 04:46:09;;;;;;;;;;;;;;;4.53;69.39;99662.78;5114341;28;19920;-63
2023/03/20 04:48:38;;;;;;;;;;;;;;;4.51;69.72;99666.97;5114234;28;19926;-63
2023/03/20 04:51:07;;;;;;;;;;;;;;;4.56;70.15;99670.41;5114840;28;20371;-63
2023/03/20 04:53:46;;;;;;;;;;;;;;;4.58;69.98;99667.13;5115665;28;19920;-63
2023/03/20 04:56:16;;;;;;;;;;;;;;;4.59;69.48;99675.56;5114155;28;20323;-63
2023/03/20 04:58:46;;;;;;;;;;;;;;;4.54;69.89;99677.97;5115300;28;19920;-63
2023/03/20 05:01:16;;;;;;;;;;;;;;;4.53;69.87;99683.00;5115222;28;19919;-63
2023/03/20 05:03:45;;;;;;;;;;;;;;;4.50;70.13;99680.41;5113934;28;19923;-63
2023/03/20 05:06:14;;;;;;;;;;;;;;;4.49;70.42;99681.22;5113997;28;19919;-63
2023/03/20 05:08:44;;;;;;;;;;;;;;;4.45;70.11;99682.84;5115099;28;19923;-63
2023/03/20 05:11:13;;;;;;;;;;;;;;;4.37;70.03;99683.44;5113944;28;19951;-63
2023/03/20 05:13:48;;;;;;;;;;;;;;;4.33;70.80;99681.69;5115068;28;19931;-63
2023/03/20 05:16:37;;;;;;;;;;;;;;;4.35;70.64;99692.66;5115066;28;19920;-63
2023/03/20 05:19:26;;;;;;;;;;;;;;;4.35;70.81;99687.63;5103868;28;19924;-64
2023/03/20 05:22:06;;;;;;;;;;;;;;;4.38;70.85;99687.69;5114673;28;19934;-63
2023/03/20 05:24:44;;;;;;;;;;;;;;;4.53;71.28;99690.59;5115103;28;19919;-63
2023/03/20 05:27:36;;;;;;;;;;;;;;;4.61;70.82;99694.13;5109234;28;19988;-63
2023/03/20 05:30:18;;;;;;;;;;;;;;;4.66;70.97;99697.63;5115028;28;20371;-63
2023/03/20 05:32:58;;;;;;;;;;;;;;;4.71;71.05;99711.22;5114769;28;19920;-63
2023/03/20 05:35:26;;;;;;;;;;;;;;;4.73;70.49;99707.91;5114677;28;19924;-63
2023/03/20 05:38:10;;;;;;;;;;;;;;;4.80;70.94;99713.94;5114972;28;20285;-63
2023/03/20 05:40:50;;;;;;;;;;;;;;;4.80;70.75;99716.47;5114556;28;19919;-63
2023/03/20 05:43:24;;;;;;;;;;;;;;;4.81;70.65;99723.25;5114588;28;19926;-63
2023/03/20 05:46:02;;;;;;;;;;;;;;;4.87;70.61;99720.84;5114630;28;20380;-63
2023/03/20 05:48:51;;;;;;;;;;;;;;;4.88;70.73;99730.16;5114266;28;20035;-63
2023/03/20 05:51:43;;;;;;;;;;;;;;;4.91;70.98;99730.25;5085508;28;19949;-63
2023/03/20 05:54:27;;;;;;;;;;;;;;;4.91;71.09;99734.44;5113138;28;19927;-63
2023/03/20 05:57:06;;;;;;;;;;;;;;;5.04;70.94;99732.19;5114468;28;19923;-63
2023/03/20 05:59:55;;;;;;;;;;;;;;;5.19;70.35;99737.59;5114116;28;19919;-63
2023/03/20 06:02:36;;;;;;;;;;;;;;;5.28;70.18;99735.25;5114754;28;19919;-63
2023/03/20 06:05:21;;;;;;;;;;;;;;;5.31;70.69;99737.84;5114547;28;19927;-63
2023/03/20 06:07:52;;;;;;;;;;;;;;;5.43;70.37;99738.13;5114636;28;19920;-63
2023/03/20 06:10:21;;;;;;;;;;;;;;;5.52;70.44;99734.06;5117992;28;19959;-63
2023/03/20 06:12:51;;;;;;;;;;;;;;;5.65;69.93;99748.66;5118560;28;19920;-63
2023/03/20 06:15:24;;;;;;;;;;;;;;;5.67;69.69;99750.41;5118796;28;20281;-63
2023/03/20 06:18:01;;;;;;;;;;;;;;;5.76;69.84;99747.22;5118455;28;19975;-63
2023/03/20 06:20:30;;;;;;;;;;;;;;;5.78;69.58;99743.03;5118293;28;19941;-63
2023/03/20 06:23:03;;;;;;;;;;;;;;;5.93;69.46;99745.88;5118304;28;19969;-63
2023/03/20 06:25:31;;;;;;;;;;;;;;;6.01;69.61;99744.34;5117036;28;19919;-63
2023/03/20 06:28:00;;;;;;;;;;;;;;;6.07;69.75;99745.28;5117384;28;19923;-63
2023/03/20 06:30:29;;;;;;;;;;;;;;;6.13;69.44;99754.69;5118241;28;19920;-63
2023/03/20 06:32:58;;;;;;;;;;;;;;;6.23;68.13;99743.91;5118486;28;19924;-63
2023/03/20 06:35:37;;;;;;;;;;;;;;;6.24;68.03;99753.19;5118081;28;19924;-63
2023/03/20 06:38:06;;;;;;;;;;;;;;;6.29;68.12;99751.59;5117430;28;20327;-62
2023/03/20 06:40:35;;;;;;;;;;;;;;;6.30;67.69;99758.38;5116971;28;20011;-62
2023/03/20 06:43:04;;;;;;;;;;;;;;;6.42;67.39;99758.59;5116982;28;19919;-62
2023/03/20 06:45:42;;;;;;;;;;;;;;;6.48;66.91;99757.81;5117703;28;19920;-63
2023/03/20 06:48:21;;;;;;;;;;;;;;;6.58;66.59;99754.63;5118407;28;19996;-63
2023/03/20 06:50:52;;;;;;;;;;;;;;;6.69;66.34;99759.03;5118224;28;19949;-63
2023/03/20 06:53:24;;;;;;;;;;;;;;;6.71;66.37;99757.41;5118179;28;19920;-62
2023/03/20 06:56:01;;;;;;;;;;;;;;;6.74;66.34;99754.06;5116552;28;20010;-63
2023/03/20 06:58:30;;;;;;;;;;;;;;;6.86;65.97;99759.31;5116353;28;19919;-63
2023/03/20 07:00:58;;;;;;;;;;;;;;;6.94;66.04;99757.72;5116436;28;20370;-63
2023/03/20 07:03:27;;;;;;;;;;;;;;;6.98;65.79;99751.03;5116338;28;19920;-62
2023/03/20 07:05:59;;;;;;;;;;;;;;;7.02;65.68;99752.78;5117564;28;19919;-63
2023/03/20 07:08:28;;;;;;;;;;;;;;;7.09;65.84;99745.28;5116667;28;19926;-63
2023/03/20 07:10:57;;;;;;;;;;;;;;;7.19;65.74;99741.19;5117400;28;20018;-63
2023/03/20 07:13:27;;;;;;;;;;;;;;;7.32;66.04;99738.81;5116171;28;19919;-63
2023/03/20 07:15:57;;;;;;;;;;;;;;;7.50;65.53;99743.28;5117305;28;19926;-63
2023/03/20 07:18:40;;;;;;;;;;;;;;;7.61;64.84;99743.38;5117636;28;20369;-63
2023/03/20 07:21:15;;;;;;;;;;;;;;;7.78;65.22;99750.38;5116403;28;19926;-63
2023/03/20 07:23:44;;;;;;;;;;;;;;;8.01;65.12;99748.94;5116044;28;19919;-63
2023/03/20 07:26:13;;;;;;;;;;;;;;;8.16;65.09;99744.88;5116119;28;19920;-64
2023/03/20 07:28:41;;;;;;;;;;;;;;;8.26;64.04;99749.19;5117076;28;19926;-63
2023/03/20 07:31:19;;;;;;;;;;;;;;;8.39;64.21;99757.00;5116263;28;19942;-63
2023/03/20 07:33:52;;;;;;;;;;;;;;;8.51;63.01;99740.97;5115800;28;19919;-63
2023/03/20 07:36:22;;;;;;;;;;;;;;;8.67;63.40;99748.75;5115883;28;19920;-62
2023/03/20 07:38:51;;;;;;;;;;;;;;;8.75;61.74;99751.34;5117195;28;19920;-62
2023/03/20 07:41:19;;;;;;;;;;;;;;;8.78;61.90;99746.31;5115674;28;19920;-63
2023/03/20 07:43:59;;;;;;;;;;;;;;;8.97;61.19;99753.22;5116797;28;19919;-63
2023/03/20 07:46:48;;;;;;;;;;;;;;;9.16;61.03;99752.50;5116235;28;19959;-63
2023/03/20 07:49:17;;;;;;;;;;;;;;;9.41;60.60;99750.91;5116651;28;19923;-63
2023/03/20 07:51:48;;;;;;;;;;;;;;;9.71;60.36;99750.22;5109857;28;19932;-64
2023/03/20 07:54:17;;;;;;;;;;;;;;;9.97;60.08;99743.50;5096236;28;19919;-63
2023/03/20 07:56:45;;;;;;;;;;;;;;;10.13;59.17;99745.25;5095183;28;19997;-63
2023/03/20 07:59:14;;;;;;;;;;;;;;;10.36;58.59;99747.84;5094922;28;20018;-63
2023/03/20 08:01:43;;;;;;;;;;;;;;;10.51;57.96;99742.78;5096056;28;19995;-63
2023/03/20 08:04:11;;;;;;;;;;;;;;;10.58;57.85;99745.28;5096487;28;20074;-62
2023/03/20 08:06:40;;;;;;;;;;;;;;;10.73;57.80;99750.41;5095980;28;19959;-63
2023/03/20 08:09:10;;;;;;;;;;;;;;;10.98;57.42;99756.34;5095872;28;20023;-64
2023/03/20 08:11:38;;;;;;;;;;;;;;;11.22;57.06;99746.09;5096234;28;19920;-63
2023/03/20 08:14:07;;;;;;;;;;;;;;;11.44;56.94;99741.78;5095820;28;19970;-63
2023/03/20 08:16:35;;;;;;;;;;;;;;;11.71;57.08;99751.91;5095797;28;19920;-63
2023/03/20 08:19:05;;;;;;;;;;;;;;;11.84;56.32;99748.47;5095931;28;20002;-63
2023/03/20 08:21:33;;;;;;;;;;;;;;;11.90;55.66;99743.28;5095562;28;19924;-63
2023/03/20 08:24:02;;;;;;;;;;;;;;;12.02;55.04;99748.34;5102498;28;19919;-63
2023/03/20 08:26:31;;;;;;;;;;;;;;;12.17;54.31;99747.41;5098994;28;19919;-63
2023/03/20 08:29:00;;;;;;;;;;;;;;;12.28;53.63;99744.81;5095832;28;20439;-63
2023/03/20 08:31:29;;;;;;;;;;;;;;;12.22;52.52;99745.69;5094516;28;19926;-63
2023/03/20 08:33:57;;;;;;;;;;;;;;;12.30;52.30;99737.97;5095378;28;19920;-63
2023/03/20 08:36:25;;;;;;;;;;;;;;;12.33;52.00;99733.69;5095502;28;19967;-63
2023/03/20 08:38:54;;;;;;;;;;;;;;;12.32;51.08;99736.22;5095618;28;20373;-62
2023/03/20 08:41:23;;;;;;;;;;;;;;;12.34;50.89;99740.47;5095217;28;20369;-63
2023/03/20 08:43:53;;;;;;;;;;;;;;;12.52;50.86;99744.63;5099432;28;19920;-63
2023/03/20 08:46:21;;;;;;;;;;;;;;;12.79;50.94;99746.94;5115909;28;19920;-63
2023/03/20 08:48:50;;;;;;;;;;;;;;;13.08;50.87;99746.72;5097445;28;19920;-63
2023/03/20 08:51:18;;;;;;;;;;;;;;;13.21;50.76;99738.91;5095270;28;19973;-63
2023/03/20 08:53:47;;;;;;;;;;;;;;;13.31;49.28;99745.63;5095481;28;19924;-63
2023/03/20 08:56:15;;;;;;;;;;;;;;;13.41;48.33;99742.09;5094958;28;19920;-64
2023/03/20 08:58:44;;;;;;;;;;;;;;;13.41;48.39;99744.66;5094769;28;19920;-63
2023/03/20 09:01:15;;;;;;;;;;;;;;;13.58;47.88;99743.63;5095181;28;19959;-64
2023/03/20 09:03:44;;;;;;;;;;;;;;;13.71;47.99;99740.03;5095101;28;20384;-64
2023/03/20 09:06:12;;;;;;;;;;;;;;;13.82;47.34;99739.03;5094733;28;19945;-62
2023/03/20 09:08:41;;;;;;;;;;;;;;;13.92;47.29;99739.75;5095328;28;20010;-62
2023/03/20 09:11:09;;;;;;;;;;;;;;;14.02;46.58;99739.63;5094674;28;19920;-62
2023/03/20 09:13:38;;;;;;;;;;;;;;;14.15;46.68;99732.59;5094686;28;19973;-62
2023/03/20 09:16:06;;;;;;;;;;;;;;;14.29;46.34;99735.81;5094864;28;19920;-64
2023/03/20 09:18:37;;;;;;;;;;;;;;;14.38;46.38;99730.56;5094278;28;19966;-62
2023/03/20 09:21:05;;;;;;;;;;;;;;;14.50;45.80;99730.38;5101492;28;19964;-62
2023/03/20 09:23:34;;;;;;;;;;;;;;;14.74;46.16;99729.13;5114399;28;19920;-62
2023/03/20 09:26:02;;;;;;;;;;;;;;;14.80;45.66;99733.31;5113628;28;20329;-62
2023/03/20 09:28:31;;;;;;;;;;;;;;;14.92;45.83;99733.97;5115094;28;19920;-62
2023/03/20 09:31:00;;;;;;;;;;;;;;;14.86;45.51;99733.19;5115013;28;19981;-63
2023/03/20 09:33:29;;;;;;;;;;;;;;;14.82;45.97;99731.56;5114769;28;19919;-64
2023/03/20 09:35:59;;;;;;;;;;;;;;;15.04;45.87;99727.75;5114866;28;20002;-64
2023/03/20 09:38:28;;;;;;;;;;;;;;;15.13;45.53;99728.44;5114672;28;19919;-64
2023/03/20 09:40:57;;;;;;;;;;;;;;;15.08;45.50;99724.25;5114639;28;20006;-64
2023/03/20 09:43:33;;;;;;;;;;;;;;;15.04;45.09;99718.31;5114369;28;20014;-64
2023/03/20 09:46:07;;;;;;;;;;;;;;;15.20;45.17;99718.88;5114851;28;19920;-64
2023/03/20 09:48:38;;;;;;;;;;;;;;;15.34;44.64;99727.16;5114368;28;19919;-64
2023/03/20 09:51:13;;;;;;;;;;;;;;;15.49;44.35;99719.19;5114549;28;20410;-64
2023/03/20 09:53:44;;;;;;;;;;;;;;;15.65;44.10;99715.44;5107586;28;19933;-64
2023/03/20 09:56:15;;;;;;;;;;;;;;;15.67;43.94;99716.25;5101314;28;19927;-64
2023/03/20 09:58:48;;;;;;;;;;;;;;;15.65;43.71;99709.44;5114402;28;19920;-64
2023/03/20 10:01:18;;;;;;;;;;;;;;;15.76;44.05;99713.50;5115358;28;19951;-64
2023/03/20 10:03:50;;;;;;;;;;;;;;;15.77;43.95;99697.16;5114282;28;19926;-64
2023/03/20 10:06:20;;;;;;;;;;;;;;;15.92;44.11;99701.97;5114644;28;19920;-64
2023/03/20 10:08:49;;;;;;;;;;;;;;;16.10;44.04;99696.41;5114514;28;19965;-64
2023/03/20 10:11:24;;;;;;;;;;;;;;;16.29;43.67;99696.00;5114243;28;20201;-64
2023/03/20 10:14:00;;;;;;;;;;;;;;;16.44;43.33;99698.19;5114355;28;20010;-64
2023/03/20 10:16:40;;;;;;;;;;;;;;;16.67;42.93;99685.63;5114539;28;19980;-64
2023/03/20 10:19:13;;;;;;;;;;;;;;;16.64;42.52;99688.28;5114676;28;20452;-64
2023/03/20 10:21:45;;;;;;;;;;;;;;;16.65;42.33;99677.09;5114150;28;19920;-64
2023/03/20 10:24:20;;;;;;;;;;;;;;;16.77;41.70;99681.94;5114509;28;20426;-64
2023/03/20 10:26:50;;;;;;;;;;;;;;;17.08;42.43;99680.25;5114434;28;19923;-64
2023/03/20 10:29:25;;;;;;;;;;;;;;;17.20;41.95;99674.72;5105659;28;19920;-64
2023/03/20 10:31:57;;;;;;;;;;;;;;;17.26;41.48;99684.88;5106691;28;19919;-63
2023/03/20 10:34:35;;;;;;;;;;;;;;;17.39;40.91;99680.25;5114616;28;20322;-64
2023/03/20 10:37:10;;;;;;;;;;;;;;;17.28;40.50;99665.03;5114394;28;20396;-62
2023/03/20 10:39:49;;;;;;;;;;;;;;;17.63;41.38;99668.41;5114007;28;19923;-64
2023/03/20 10:42:21;;;;;;;;;;;;;;;17.73;40.81;99664.66;5113991;28;19919;-64
2023/03/20 10:44:52;;;;;;;;;;;;;;;17.61;40.33;99670.19;5114125;28;19919;-64
2023/03/20 10:47:22;;;;;;;;;;;;;;;17.58;40.36;99659.94;5113973;28;19924;-64
2023/03/20 10:49:54;;;;;;;;;;;;;;;17.65;40.39;99661.44;5114239;28;20018;-64
2023/03/20 10:52:26;;;;;;;;;;;;;;;17.72;40.14;99668.13;5114158;28;20361;-63
2023/03/20 10:54:57;;;;;;;;;;;;;;;17.75;40.54;99652.53;5108035;28;19920;-63
2023/03/20 10:57:26;;;;;;;;;;;;;;;17.95;40.77;99650.16;5111769;28;19927;-64
2023/03/20 10:59:56;;;;;;;;;;;;;;;18.06;40.87;99653.28;5106205;28;19920;-64
2023/03/20 11:02:26;;;;;;;;;;;;;;;18.04;40.82;99647.31;5097393;28;20377;-64
2023/03/20 11:04:54;;;;;;;;;;;;;;;18.27;41.32;99647.44;5097153;28;20370;-64
2023/03/20 11:07:27;;;;;;;;;;;;;;;18.34;41.35;99655.81;5100318;28;20018;-64
2023/03/20 11:10:06;;;;;;;;;;;;;;;18.40;40.82;99651.31;5104366;28;20370;-64
2023/03/20 11:12:36;;;;;;;;;;;;;;;18.27;40.98;99652.59;5097390;28;19962;-64
2023/03/20 11:15:14;;;;;;;;;;;;;;;18.42;40.83;99652.09;5100315;28;19947;-64
2023/03/20 11:17:43;;;;;;;;;;;;;;;18.42;40.43;99646.94;5117417;28;19919;-64
2023/03/20 11:20:14;;;;;;;;;;;;;;;18.21;40.63;99646.78;5116784;28;19923;-64
2023/03/20 11:22:44;;;;;;;;;;;;;;;18.11;40.79;99640.22;5117896;28;20010;-63
2023/03/20 11:25:22;;;;;;;;;;;;;;;18.27;41.01;99637.09;5117518;28;19919;-64
2023/03/20 11:27:51;;;;;;;;;;;;;;;18.35;40.74;99629.09;5117369;28;19923;-63
2023/03/20 11:30:19;;;;;;;;;;;;;;;18.57;40.96;99630.09;5117051;28;19923;-63
2023/03/20 11:32:49;;;;;;;;;;;;;;;18.91;41.20;99624.63;5116985;28;20010;-64
2023/03/20 11:35:22;;;;;;;;;;;;;;;19.08;41.27;99622.25;5117375;28;19920;-64
2023/03/20 11:37:53;;;;;;;;;;;;;;;18.94;40.72;99617.56;5117217;28;19954;-64
2023/03/20 11:40:24;;;;;;;;;;;;;;;19.14;41.29;99612.53;5116991;28;20392;-64
2023/03/20 11:42:53;;;;;;;;;;;;;;;19.24;40.92;99610.44;5116917;28;19969;-63
2023/03/20 11:45:22;;;;;;;;;;;;;;;19.38;41.02;99605.63;5104910;28;19920;-64
2023/03/20 11:47:51;;;;;;;;;;;;;;;19.53;40.82;99594.66;5115820;28;19972;-64
2023/03/20 11:50:30;;;;;;;;;;;;;;;19.48;41.42;99596.63;5116832;28;19927;-64
2023/03/20 11:53:01;;;;;;;;;;;;;;;19.29;41.56;99595.59;5117101;28;19927;-64
2023/03/20 11:55:31;;;;;;;;;;;;;;;19.37;42.02;99588.41;5116907;28;19923;-64
2023/03/20 11:58:01;;;;;;;;;;;;;;;19.43;41.89;99588.19;5116607;28;19924;-63
2023/03/20 12:00:35;;;;;;;;;;;;;;;19.16;42.19;99584.00;5116501;28;19926;-63
2023/03/20 12:03:10;;;;;;;;;;;;;;;19.26;42.53;99590.53;5116404;27;19920;-63
2023/03/20 12:05:39;;;;;;;;;;;;;;;19.40;42.85;99583.13;5116483;28;19923;-64
2023/03/20 12:08:14;;;;;;;;;;;;;;;19.41;42.29;99584.81;5116244;28;19919;-63
2023/03/20 12:10:46;;;;;;;;;;;;;;;19.29;42.27;99580.06;5116740;28;19969;-64
2023/03/20 12:13:17;;;;;;;;;;;;;;;19.35;42.91;99579.81;5116256;28;19919;-63
2023/03/20 12:15:47;;;;;;;;;;;;;;;19.29;42.69;99577.47;5116300;28;19926;-63
2023/03/20 12:18:17;;;;;;;;;;;;;;;19.31;42.74;99573.09;5116591;28;19926;-63
2023/03/20 12:20:50;;;;;;;;;;;;;;;19.28;42.75;99565.44;5116051;28;20357;-64
2023/03/20 12:23:28;;;;;;;;;;;;;;;19.40;43.45;99570.16;5116527;28;19919;-62
2023/03/20 12:25:59;;;;;;;;;;;;;;;19.36;43.13;99571.19;5105386;28;19942;-62
2023/03/20 12:28:33;;;;;;;;;;;;;;;19.44;43.86;99569.16;5095529;28;19973;-63
2023/03/20 12:31:06;;;;;;;;;;;;;;;19.38;43.39;99574.56;5095838;28;19924;-62
2023/03/20 12:33:44;;;;;;;;;;;;;;;19.42;43.50;99575.28;5095459;28;19920;-62
2023/03/20 12:36:14;;;;;;;;;;;;;;;19.39;43.52;99565.88;5112824;28;19942;-62
2023/03/20 12:38:44;;;;;;;;;;;;;;;19.54;43.91;99572.22;5103051;28;20335;-62
2023/03/20 12:41:15;;;;;;;;;;;;;;;19.62;43.66;99571.03;5095412;28;19927;-63
2023/03/20 12:43:53;;;;;;;;;;;;;;;19.72;43.47;99569.78;5095577;28;20460;-62
2023/03/20 12:46:25;;;;;;;;;;;;;;;19.74;43.22;99562.78;5095353;28;20014;-64
2023/03/20 12:49:00;;;;;;;;;;;;;;;19.68;43.07;99563.00;5096853;28;19920;-62
2023/03/20 12:51:35;;;;;;;;;;;;;;;19.70;42.69;99561.19;5095103;28;19926;-62
2023/03/20 12:54:12;;;;;;;;;;;;;;;19.80;42.48;99557.34;5095434;28;20282;-62
2023/03/20 12:56:53;;;;;;;;;;;;;;;19.90;42.44;99548.31;5095043;28;19928;-62
2023/03/20 12:59:27;;;;;;;;;;;;;;;20.03;41.71;99552.06;5093425;28;20445;-62
2023/03/20 13:01:58;;;;;;;;;;;;;;;19.93;41.78;99553.38;5093973;28;19963;-62
2023/03/20 13:04:39;;;;;;;;;;;;;;;20.16;42.49;99551.56;5106236;28;20356;-63
2023/03/20 13:07:15;;;;;;;;;;;;;;;20.27;41.83;99552.00;5095833;28;19926;-62
2023/03/20 13:09:56;;;;;;;;;;;;;;;20.25;41.58;99551.22;5095006;28;20333;-62
2023/03/20 13:12:32;;;;;;;;;;;;;;;20.25;41.26;99553.81;5095318;28;20282;-62
2023/03/20 13:15:07;;;;;;;;;;;;;;;20.11;41.08;99550.94;5094778;28;20362;-63
2023/03/20 13:17:38;;;;;;;;;;;;;;;20.01;40.99;99543.50;5094579;28;19955;-62
2023/03/20 13:20:17;;;;;;;;;;;;;;;19.92;41.20;99543.91;5094410;28;19920;-62